Time;durP1;ratioP1;P1;durP2;ratioP2;P2;SDS_P1;SDS_P2;PMS_P1;PMS_P2;Temp;Humidity;BMP_temperature;BMP_pressure;BME280_temperature;BME280_humidity;BME280_pressure;Samples;Min_cycle;Max_cycle;Signal;HPM_P1;HPM_P2
2023/07/18 00:00:30;;;;;;;6.90;6.25;;;;;;;;;;5009733;28;20228;-87
2023/07/18 00:02:59;;;;;;;8.60;6.60;;;;;;;;;;5009858;28;20275;-86
2023/07/18 00:05:27;;;;;;;9.00;6.40;;;;;;;;;;5009988;28;20224;-88
2023/07/18 00:07:55;;;;;;;6.97;6.25;;;;;;;;;;5010158;28;20193;-87
2023/07/18 00:10:23;;;;;;;10.13;6.55;;;;;;;;;;5010117;28;20205;-87
2023/07/18 00:12:50;;;;;;;6.97;6.38;;;;;;;;;;5009845;28;20232;-86
2023/07/18 00:15:17;;;;;;;6.47;5.93;;;;;;;;;;5008937;28;20213;-89
2023/07/18 00:17:45;;;;;;;7.30;6.63;;;;;;;;;;5006753;28;20247;-87
2023/07/18 00:20:17;;;;;;;7.50;6.35;;;;;;;;;;5009192;28;20235;-87
2023/07/18 00:22:47;;;;;;;7.38;6.40;;;;;;;;;;5007850;28;20545;-86
2023/07/18 00:25:16;;;;;;;9.25;6.50;;;;;;;;;;5008884;28;20255;-85
2023/07/18 00:27:44;;;;;;;6.53;5.93;;;;;;;;;;5008228;28;20221;-86
2023/07/18 00:30:12;;;;;;;7.63;6.30;;;;;;;;;;5007718;28;20275;-86
2023/07/18 00:32:39;;;;;;;6.90;6.20;;;;;;;;;;5007527;28;20729;-86
2023/07/18 00:35:07;;;;;;;8.73;6.68;;;;;;;;;;5008585;28;20228;-85
2023/07/18 00:37:36;;;;;;;6.65;6.05;;;;;;;;;;5008540;28;20221;-87
2023/07/18 00:40:10;;;;;;;7.60;6.47;;;;;;;;;;5009317;28;20244;-88
2023/07/18 00:42:37;;;;;;;7.18;6.43;;;;;;;;;;5008305;28;20314;-87
2023/07/18 00:45:05;;;;;;;8.00;6.35;;;;;;;;;;5009902;28;20236;-87
2023/07/18 00:47:32;;;;;;;7.35;6.43;;;;;;;;;;5011374;28;20235;-86
2023/07/18 00:49:59;;;;;;;8.43;6.93;;;;;;;;;;5011562;28;20221;-88
2023/07/18 00:52:26;;;;;;;12.70;6.72;;;;;;;;;;5013684;28;20221;-86
2023/07/18 00:54:55;;;;;;;8.18;6.22;;;;;;;;;;5014908;28;20244;-87
2023/07/18 00:57:23;;;;;;;8.70;6.93;;;;;;;;;;5013888;28;20307;-88
2023/07/18 00:59:50;;;;;;;8.50;7.10;;;;;;;;;;5011636;28;20232;-87
2023/07/18 01:02:18;;;;;;;7.93;7.13;;;;;;;;;;5012186;28;20237;-88
2023/07/18 01:04:44;;;;;;;13.82;6.32;;;;;;;;;;5012370;28;20323;-88
2023/07/18 01:07:12;;;;;;;11.13;7.65;;;;;;;;;;5012605;28;20299;-87
2023/07/18 01:09:39;;;;;;;8.18;6.95;;;;;;;;;;5012386;28;20225;-86
2023/07/18 01:12:08;;;;;;;8.50;6.50;;;;;;;;;;5012025;28;20273;-88
2023/07/18 01:14:35;;;;;;;9.25;6.90;;;;;;;;;;5010639;28;20283;-87
2023/07/18 01:17:03;;;;;;;7.20;6.60;;;;;;;;;;5010946;28;20229;-86
2023/07/18 01:19:30;;;;;;;7.72;6.50;;;;;;;;;;5011883;28;20315;-88
2023/07/18 01:21:58;;;;;;;7.72;6.45;;;;;;;;;;5011395;28;20229;-89
2023/07/18 01:24:25;;;;;;;8.75;7.05;;;;;;;;;;5012511;28;20290;-88
2023/07/18 01:26:52;;;;;;;7.47;6.60;;;;;;;;;;5011582;28;20229;-88
2023/07/18 01:29:19;;;;;;;14.75;7.70;;;;;;;;;;5010737;28;20232;-87
2023/07/18 01:31:48;;;;;;;9.27;7.20;;;;;;;;;;5011427;28;20227;-88
2023/07/18 01:34:14;;;;;;;10.13;7.07;;;;;;;;;;5011635;28;20402;-87
2023/07/18 01:36:42;;;;;;;9.93;7.30;;;;;;;;;;5011416;28;20225;-88
2023/07/18 01:39:10;;;;;;;10.18;6.90;;;;;;;;;;5011828;28;20347;-87
2023/07/18 01:41:37;;;;;;;9.40;7.75;;;;;;;;;;5011036;28;20224;-88
2023/07/18 01:44:04;;;;;;;8.52;7.75;;;;;;;;;;5010020;28;20236;-88
2023/07/18 01:46:31;;;;;;;8.85;7.47;;;;;;;;;;5010552;28;20277;-87
2023/07/18 01:48:58;;;;;;;16.83;7.18;;;;;;;;;;5010946;28;20318;-88
2023/07/18 01:51:25;;;;;;;8.27;7.15;;;;;;;;;;5010726;28;20221;-87
2023/07/18 01:53:52;;;;;;;9.48;7.72;;;;;;;;;;5010822;28;20220;-87
2023/07/18 01:56:20;;;;;;;8.77;7.50;;;;;;;;;;5009630;28;20248;-87
2023/07/18 01:58:47;;;;;;;9.35;7.10;;;;;;;;;;5009594;28;20286;-87
2023/07/18 02:01:14;;;;;;;8.88;7.50;;;;;;;;;;5010763;28;20232;-87
2023/07/18 02:03:42;;;;;;;8.88;7.32;;;;;;;;;;5010260;28;20298;-87
2023/07/18 02:06:09;;;;;;;8.50;6.97;;;;;;;;;;5010059;28;20221;-88
2023/07/18 02:08:36;;;;;;;9.88;7.80;;;;;;;;;;5010235;28;20610;-87
2023/07/18 02:11:02;;;;;;;8.23;7.18;;;;;;;;;;5010210;28;20217;-87
2023/07/18 02:13:32;;;;;;;8.23;7.03;;;;;;;;;;5009622;28;20228;-87
2023/07/18 02:15:59;;;;;;;8.65;7.18;;;;;;;;;;5009789;28;20213;-87
2023/07/18 02:18:26;;;;;;;10.73;8.20;;;;;;;;;;5011041;28;20700;-88
2023/07/18 02:20:53;;;;;;;8.63;7.38;;;;;;;;;;5009380;28;20664;-88
2023/07/18 02:23:19;;;;;;;12.90;8.70;;;;;;;;;;5010259;28;20324;-87
2023/07/18 02:25:47;;;;;;;10.40;7.95;;;;;;;;;;5010103;28;20256;-87
2023/07/18 02:28:14;;;;;;;10.18;7.65;;;;;;;;;;5009313;28;20294;-87
2023/07/18 02:30:43;;;;;;;18.02;8.70;;;;;;;;;;5009677;28;20584;-87
2023/07/18 02:33:10;;;;;;;8.93;7.97;;;;;;;;;;5009766;28;20243;-87
2023/07/18 02:35:37;;;;;;;8.85;7.95;;;;;;;;;;5009960;28;20220;-87
2023/07/18 02:38:04;;;;;;;12.25;8.38;;;;;;;;;;5009463;28;20604;-87
2023/07/18 02:40:31;;;;;;;10.27;7.40;;;;;;;;;;5010412;28;20236;-88
2023/07/18 02:42:58;;;;;;;9.32;7.60;;;;;;;;;;5007904;28;20689;-86
2023/07/18 02:45:25;;;;;;;9.68;7.95;;;;;;;;;;5009181;28;20617;-86
2023/07/18 02:47:53;;;;;;;9.93;7.70;;;;;;;;;;5008982;28;20232;-88
2023/07/18 02:50:20;;;;;;;8.82;7.75;;;;;;;;;;5009337;28;20225;-88
2023/07/18 02:52:47;;;;;;;9.05;7.47;;;;;;;;;;5009100;28;20233;-86
2023/07/18 02:55:14;;;;;;;10.23;7.93;;;;;;;;;;5009612;28;20327;-86
2023/07/18 02:57:41;;;;;;;11.18;8.45;;;;;;;;;;5008130;28;20240;-87
2023/07/18 03:00:19;;;;;;;8.43;7.55;;;;;;;;;;5009385;28;20267;-88
2023/07/18 03:02:46;;;;;;;11.20;7.88;;;;;;;;;;5007361;28;20236;-87
2023/07/18 03:05:14;;;;;;;13.13;8.82;;;;;;;;;;5009171;28;20636;-87
2023/07/18 03:07:41;;;;;;;10.40;7.60;;;;;;;;;;5008521;28;20225;-88
2023/07/18 03:10:09;;;;;;;11.73;8.85;;;;;;;;;;5009585;28;20221;-89
2023/07/18 03:12:36;;;;;;;12.80;9.35;;;;;;;;;;5007311;28;20224;-85
2023/07/18 03:15:04;;;;;;;10.70;8.77;;;;;;;;;;5008708;28;20254;-87
2023/07/18 03:17:32;;;;;;;10.82;9.25;;;;;;;;;;5009061;28;20311;-87
2023/07/18 03:19:59;;;;;;;7.95;7.25;;;;;;;;;;5008903;28;20331;-88
2023/07/18 03:22:27;;;;;;;12.43;9.13;;;;;;;;;;5009647;28;20220;-88
2023/07/18 03:24:56;;;;;;;15.63;8.85;;;;;;;;;;5008626;28;20232;-87
2023/07/18 03:27:22;;;;;;;15.10;8.93;;;;;;;;;;5008729;28;20228;-87
2023/07/18 03:29:49;;;;;;;8.07;7.28;;;;;;;;;;5008380;28;20217;-88
2023/07/18 03:32:16;;;;;;;9.68;8.23;;;;;;;;;;5009391;28;20224;-87
2023/07/18 03:34:42;;;;;;;9.90;8.30;;;;;;;;;;5008088;28;20232;-87
2023/07/18 03:37:09;;;;;;;12.10;6.93;;;;;;;;;;5009001;28;20627;-86
2023/07/18 03:39:39;;;;;;;8.10;7.30;;;;;;;;;;5008162;28;20232;-88
2023/07/18 03:42:06;;;;;;;7.85;6.80;;;;;;;;;;5008419;28;20674;-88
2023/07/18 03:44:33;;;;;;;9.00;8.10;;;;;;;;;;5008619;28;20245;-87
2023/07/18 03:47:00;;;;;;;9.63;7.82;;;;;;;;;;5008877;28;20248;-88
2023/07/18 03:49:27;;;;;;;11.05;8.00;;;;;;;;;;5009411;28;20248;-87
2023/07/18 03:51:53;;;;;;;10.52;7.88;;;;;;;;;;5011470;28;20696;-87
2023/07/18 03:54:20;;;;;;;8.05;7.38;;;;;;;;;;5003082;28;20275;-87
2023/07/18 03:56:49;;;;;;;19.70;9.38;;;;;;;;;;5027054;28;20232;-87
2023/07/18 03:59:16;;;;;;;8.23;7.38;;;;;;;;;;5007964;28;20233;-85
2023/07/18 04:01:42;;;;;;;8.30;7.57;;;;;;;;;;5007207;28;20235;-87
2023/07/18 04:04:09;;;;;;;13.27;7.97;;;;;;;;;;5005230;28;20255;-86
2023/07/18 04:06:36;;;;;;;16.23;7.90;;;;;;;;;;5000896;28;20232;-88
2023/07/18 04:09:03;;;;;;;12.60;7.85;;;;;;;;;;4997286;28;20580;-87
2023/07/18 04:11:31;;;;;;;8.77;7.90;;;;;;;;;;4992390;28;20690;-87
2023/07/18 04:13:59;;;;;;;10.82;7.57;;;;;;;;;;4988970;28;20225;-86
2023/07/18 04:16:27;;;;;;;12.35;7.38;;;;;;;;;;4988495;28;20225;-87
2023/07/18 04:18:53;;;;;;;7.75;6.97;;;;;;;;;;4991130;28;20284;-86
2023/07/18 04:21:21;;;;;;;9.43;8.07;;;;;;;;;;5009095;28;20205;-87
2023/07/18 04:23:48;;;;;;;7.85;7.18;;;;;;;;;;5013565;28;20236;-86
2023/07/18 04:26:17;;;;;;;9.27;7.75;;;;;;;;;;5013404;28;20653;-87
2023/07/18 04:28:43;;;;;;;14.52;8.27;;;;;;;;;;5013351;28;20679;-85
2023/07/18 04:31:13;;;;;;;10.25;8.15;;;;;;;;;;5013289;28;20697;-87
2023/07/18 04:33:40;;;;;;;8.07;7.32;;;;;;;;;;5013423;28;20204;-86
2023/07/18 04:36:08;;;;;;;8.10;7.40;;;;;;;;;;5012938;28;20314;-85
2023/07/18 04:38:35;;;;;;;10.23;8.00;;;;;;;;;;5013723;28;20196;-86
2023/07/18 04:41:03;;;;;;;8.32;6.97;;;;;;;;;;5013579;28;20200;-86
2023/07/18 04:43:29;;;;;;;9.25;8.32;;;;;;;;;;5012557;28;20310;-86
2023/07/18 04:45:56;;;;;;;9.32;8.45;;;;;;;;;;5013448;28;20219;-86
2023/07/18 04:48:24;;;;;;;12.38;9.65;;;;;;;;;;5013330;28;20197;-86
2023/07/18 04:51:00;;;;;;;9.45;8.50;;;;;;;;;;5011890;28;20653;-86
2023/07/18 04:53:28;;;;;;;12.15;10.00;;;;;;;;;;5013474;28;20295;-86
2023/07/18 04:55:56;;;;;;;11.60;7.70;;;;;;;;;;5012692;28;20669;-86
2023/07/18 04:58:23;;;;;;;13.15;11.23;;;;;;;;;;5012917;28;20224;-86
2023/07/18 05:00:51;;;;;;;10.43;9.32;;;;;;;;;;5013589;28;20228;-86
2023/07/18 05:03:19;;;;;;;9.55;8.70;;;;;;;;;;5013034;28;20208;-88
2023/07/18 05:05:47;;;;;;;11.20;9.20;;;;;;;;;;5012060;28;20697;-86
2023/07/18 05:08:19;;;;;;;10.02;9.02;;;;;;;;;;5013176;28;20205;-86
2023/07/18 05:10:46;;;;;;;9.95;8.32;;;;;;;;;;5013022;28;20202;-86
2023/07/18 05:13:13;;;;;;;9.75;8.75;;;;;;;;;;5013226;28;20311;-87
2023/07/18 05:15:42;;;;;;;9.18;8.25;;;;;;;;;;5013553;28;20228;-86
2023/07/18 05:18:09;;;;;;;9.20;8.02;;;;;;;;;;5013310;28;20210;-85
2023/07/18 05:20:36;;;;;;;9.30;7.93;;;;;;;;;;5012035;28;20196;-85
2023/07/18 05:23:04;;;;;;;10.45;8.77;;;;;;;;;;5012466;28;20212;-85
2023/07/18 05:25:31;;;;;;;9.80;8.48;;;;;;;;;;5011814;28;20641;-84
2023/07/18 05:27:58;;;;;;;12.75;9.38;;;;;;;;;;5011976;28;20571;-86
2023/07/18 05:30:27;;;;;;;10.32;9.15;;;;;;;;;;5011023;28;20224;-87
2023/07/18 05:32:55;;;;;;;9.40;8.40;;;;;;;;;;5019917;28;20196;-86
2023/07/18 05:35:22;;;;;;;9.27;8.23;;;;;;;;;;5015383;28;20208;-86
2023/07/18 05:37:51;;;;;;;9.77;8.98;;;;;;;;;;5013466;28;20196;-87
2023/07/18 05:40:22;;;;;;;8.25;7.32;;;;;;;;;;5013470;28;20248;-87
2023/07/18 05:42:52;;;;;;;16.67;7.68;;;;;;;;;;5014083;28;20196;-87
2023/07/18 05:45:19;;;;;;;9.15;8.23;;;;;;;;;;5012946;28;20294;-87
2023/07/18 05:47:52;;;;;;;8.75;7.85;;;;;;;;;;5014205;28;20192;-88
2023/07/18 05:50:19;;;;;;;15.05;7.72;;;;;;;;;;5018967;28;20204;-86
2023/07/18 05:52:46;;;;;;;10.63;7.85;;;;;;;;;;5017675;28;20235;-88
2023/07/18 05:55:13;;;;;;;7.90;7.20;;;;;;;;;;5014051;28;20235;-87
2023/07/18 05:57:42;;;;;;;9.38;8.50;;;;;;;;;;5013798;28;20660;-86
2023/07/18 06:00:11;;;;;;;10.27;8.02;;;;;;;;;;5017013;28;20203;-88
2023/07/18 06:02:38;;;;;;;8.75;7.93;;;;;;;;;;5013226;28;20651;-87
2023/07/18 06:05:07;;;;;;;9.48;7.40;;;;;;;;;;5012744;28;20318;-87
2023/07/18 06:07:35;;;;;;;9.10;8.10;;;;;;;;;;5013085;28;20208;-87
2023/07/18 06:10:02;;;;;;;8.75;7.90;;;;;;;;;;5011556;28;20259;-86
2023/07/18 06:12:35;;;;;;;9.73;8.93;;;;;;;;;;5012209;28;20216;-88
2023/07/18 06:15:05;;;;;;;9.38;8.55;;;;;;;;;;5014312;28;20417;-88
2023/07/18 06:17:35;;;;;;;9.57;7.60;;;;;;;;;;5011962;28;20204;-86
2023/07/18 06:20:11;;;;;;;9.35;8.45;;;;;;;;;;4999756;28;20213;-87
2023/07/18 06:22:38;;;;;;;10.20;8.50;;;;;;;;;;5003321;28;20269;-88
2023/07/18 06:25:06;;;;;;;9.32;8.30;;;;;;;;;;5009364;28;20228;-88
2023/07/18 06:27:32;;;;;;;9.07;8.15;;;;;;;;;;5006704;28;20385;-87
2023/07/18 06:30:03;;;;;;;10.07;9.10;;;;;;;;;;5001923;28;20211;-87
2023/07/18 06:32:31;;;;;;;10.55;9.45;;;;;;;;;;5015743;28;20211;-89
2023/07/18 06:35:03;;;;;;;13.60;9.55;;;;;;;;;;5014732;28;20638;-87
2023/07/18 06:40:20;;;;;;;10.48;9.35;;;;;;;;;;4991696;28;20280;-88
2023/07/18 06:42:47;;;;;;;9.80;8.50;;;;;;;;;;5011956;28;20197;-89
2023/07/18 06:45:15;;;;;;;10.18;9.13;;;;;;;;;;5011227;28;20278;-90
2023/07/18 06:47:43;;;;;;;13.07;8.82;;;;;;;;;;5011394;28;20216;-89
2023/07/18 06:50:11;;;;;;;9.43;8.25;;;;;;;;;;5011019;28;20239;-88
2023/07/18 06:52:41;;;;;;;11.00;7.85;;;;;;;;;;5016861;28;20200;-88
2023/07/18 06:55:10;;;;;;;12.82;8.40;;;;;;;;;;5018025;28;20235;-89
2023/07/18 06:57:52;;;;;;;14.00;8.75;;;;;;;;;;5025545;28;20210;-91
2023/07/18 07:00:33;;;;;;;9.98;9.10;;;;;;;;;;5003695;28;20196;-88
2023/07/18 07:03:14;;;;;;;9.45;8.50;;;;;;;;;;4998761;28;20354;-86
2023/07/18 07:05:46;;;;;;;9.55;8.55;;;;;;;;;;5004324;28;20263;-89
2023/07/18 07:08:18;;;;;;;13.35;9.10;;;;;;;;;;5004305;28;20279;-89
2023/07/18 07:10:46;;;;;;;9.90;9.05;;;;;;;;;;5013742;28;20250;-88
2023/07/18 07:13:25;;;;;;;10.05;9.02;;;;;;;;;;5008087;28;20699;-88
2023/07/18 07:15:58;;;;;;;9.02;8.25;;;;;;;;;;5015689;28;20801;-89
2023/07/18 07:18:39;;;;;;;11.05;8.85;;;;;;;;;;5016862;28;20223;-90
2023/07/18 07:21:19;;;;;;;9.65;8.70;;;;;;;;;;5000847;28;20228;-87
2023/07/18 07:23:47;;;;;;;13.77;8.45;;;;;;;;;;5013726;28;20223;-84
2023/07/18 07:26:19;;;;;;;12.15;8.70;;;;;;;;;;5013525;28;20268;-89
2023/07/18 07:28:47;;;;;;;9.85;8.85;;;;;;;;;;5010725;28;20227;-88
2023/07/18 07:31:14;;;;;;;11.18;9.38;;;;;;;;;;5010586;28;20232;-87
2023/07/18 07:33:44;;;;;;;9.13;8.32;;;;;;;;;;5011449;28;20277;-90
2023/07/18 07:36:13;;;;;;;10.57;9.32;;;;;;;;;;5014866;28;20223;-89
2023/07/18 07:38:41;;;;;;;12.20;9.90;;;;;;;;;;5013763;28;20743;-90
2023/07/18 07:41:08;;;;;;;9.52;8.63;;;;;;;;;;5014585;28;20259;-89
2023/07/18 07:43:35;;;;;;;9.20;8.48;;;;;;;;;;5014562;28;20220;-89
2023/07/18 07:46:04;;;;;;;8.52;7.78;;;;;;;;;;5012345;28;20331;-90
2023/07/18 07:48:32;;;;;;;9.05;8.10;;;;;;;;;;5010975;28;20227;-89
2023/07/18 07:51:03;;;;;;;9.68;8.68;;;;;;;;;;5016207;28;20251;-90
2023/07/18 07:53:30;;;;;;;11.88;9.52;;;;;;;;;;5013581;28;20224;-89
2023/07/18 07:55:57;;;;;;;9.95;8.98;;;;;;;;;;5015201;28;20244;-90
2023/07/18 07:58:24;;;;;;;10.10;9.07;;;;;;;;;;5029884;28;20239;-88
2023/07/18 08:00:51;;;;;;;9.25;8.30;;;;;;;;;;5033179;28;20222;-89
2023/07/18 08:03:18;;;;;;;10.02;9.07;;;;;;;;;;5024197;28;20232;-89
2023/07/18 08:05:45;;;;;;;9.73;8.77;;;;;;;;;;5011502;28;20685;-87
2023/07/18 08:08:14;;;;;;;10.88;9.35;;;;;;;;;;5009319;28;20220;-88
2023/07/18 08:10:41;;;;;;;9.35;8.55;;;;;;;;;;5009820;28;20220;-88
2023/07/18 08:13:10;;;;;;;9.90;9.10;;;;;;;;;;5010550;28;20311;-89
2023/07/18 08:15:38;;;;;;;9.57;8.70;;;;;;;;;;5009530;28;20630;-89
2023/07/18 08:18:05;;;;;;;8.57;7.88;;;;;;;;;;5010435;28;20266;-89
2023/07/18 08:20:32;;;;;;;9.00;8.15;;;;;;;;;;5009575;28;20227;-89
2023/07/18 08:22:59;;;;;;;9.38;8.45;;;;;;;;;;5008988;28;20303;-89
2023/07/18 08:25:28;;;;;;;9.23;8.52;;;;;;;;;;5009198;28;20249;-90
2023/07/18 08:27:55;;;;;;;8.48;7.80;;;;;;;;;;5011702;28;20235;-90
2023/07/18 08:30:22;;;;;;;8.13;7.43;;;;;;;;;;5010193;28;20216;-88
2023/07/18 08:33:06;;;;;;;11.30;7.72;;;;;;;;;;5016328;28;20283;-88
2023/07/18 08:35:33;;;;;;;12.70;9.70;;;;;;;;;;5010473;28;20266;-88
2023/07/18 08:38:01;;;;;;;7.00;6.60;;;;;;;;;;5010781;28;20244;-86
2023/07/18 08:40:32;;;;;;;9.95;8.52;;;;;;;;;;5011606;28;20342;-88
2023/07/18 08:43:00;;;;;;;9.13;7.28;;;;;;;;;;5011615;28;20224;-87
2023/07/18 08:45:30;;;;;;;7.82;7.22;;;;;;;;;;5009962;28;20244;-87
2023/07/18 08:47:58;;;;;;;9.20;8.40;;;;;;;;;;5016309;28;20274;-89
2023/07/18 08:50:26;;;;;;;9.93;8.95;;;;;;;;;;5014120;28;20231;-88
2023/07/18 08:52:53;;;;;;;9.50;8.68;;;;;;;;;;5016619;28;20231;-88
2023/07/18 08:55:21;;;;;;;11.23;8.60;;;;;;;;;;5016032;28;20308;-89
2023/07/18 08:57:51;;;;;;;8.60;7.78;;;;;;;;;;5017336;28;20243;-88
2023/07/18 09:00:20;;;;;;;11.60;7.78;;;;;;;;;;5014467;28;20252;-87
2023/07/18 09:02:49;;;;;;;9.13;8.48;;;;;;;;;;5017096;28;20235;-88
2023/07/18 09:05:34;;;;;;;9.82;8.77;;;;;;;;;;5016081;28;20267;-87
2023/07/18 09:08:02;;;;;;;10.43;9.43;;;;;;;;;;5017411;28;20232;-88
2023/07/18 09:10:29;;;;;;;9.52;8.63;;;;;;;;;;5015700;28;20251;-87
2023/07/18 09:13:00;;;;;;;10.07;8.95;;;;;;;;;;5014880;28;20299;-87
2023/07/18 09:15:27;;;;;;;9.93;8.90;;;;;;;;;;5015259;28;20228;-88
2023/07/18 09:17:56;;;;;;;9.35;8.45;;;;;;;;;;5014597;28;20609;-88
2023/07/18 09:20:24;;;;;;;8.95;8.02;;;;;;;;;;5014272;28;20609;-87
2023/07/18 09:22:56;;;;;;;9.55;8.73;;;;;;;;;;5013024;28;20247;-88
2023/07/18 09:25:23;;;;;;;9.95;8.93;;;;;;;;;;5012256;28;20281;-87
2023/07/18 09:27:51;;;;;;;9.68;8.77;;;;;;;;;;5011497;28;20255;-88
2023/07/18 09:30:23;;;;;;;9.90;8.90;;;;;;;;;;5012003;28;20346;-87
2023/07/18 09:32:51;;;;;;;11.93;9.68;;;;;;;;;;5003750;28;20656;-87
2023/07/18 09:35:17;;;;;;;10.32;9.18;;;;;;;;;;4994908;28;20260;-88
2023/07/18 09:37:46;;;;;;;10.75;9.75;;;;;;;;;;4993739;28;20275;-89
2023/07/18 09:40:15;;;;;;;11.32;9.82;;;;;;;;;;5002387;28;20224;-88
2023/07/18 09:42:48;;;;;;;10.38;9.38;;;;;;;;;;5030685;28;20223;-86
2023/07/18 09:45:15;;;;;;;10.02;9.13;;;;;;;;;;5021136;28;20352;-87
2023/07/18 09:47:46;;;;;;;10.73;9.52;;;;;;;;;;5012571;28;20238;-88
2023/07/18 09:50:15;;;;;;;11.02;9.95;;;;;;;;;;5011653;28;20713;-90
2023/07/18 09:52:43;;;;;;;10.98;9.90;;;;;;;;;;5009965;28;20297;-87
2023/07/18 09:55:11;;;;;;;15.75;9.98;;;;;;;;;;5006609;28;20787;-89
2023/07/18 09:57:40;;;;;;;10.60;9.60;;;;;;;;;;5009966;28;20252;-87
2023/07/18 10:00:11;;;;;;;10.40;9.50;;;;;;;;;;5010269;28;20625;-91
2023/07/18 10:02:38;;;;;;;13.70;9.90;;;;;;;;;;5010352;28;20237;-89
2023/07/18 10:05:10;;;;;;;10.88;9.98;;;;;;;;;;5011032;28;20705;-87
2023/07/18 10:07:37;;;;;;;9.77;8.88;;;;;;;;;;5009894;28;20228;-87
2023/07/18 10:10:06;;;;;;;10.50;8.80;;;;;;;;;;5011472;28;20333;-89
2023/07/18 10:12:36;;;;;;;10.20;9.25;;;;;;;;;;5009595;28;20256;-89
2023/07/18 10:15:03;;;;;;;9.00;8.25;;;;;;;;;;5011294;28;20691;-88
2023/07/18 10:17:39;;;;;;;12.20;9.38;;;;;;;;;;5012601;28;20227;-89
2023/07/18 10:20:13;;;;;;;13.15;8.32;;;;;;;;;;5012232;28;20294;-90
2023/07/18 10:22:48;;;;;;;8.85;8.15;;;;;;;;;;5010915;28;20227;-88
2023/07/18 10:25:18;;;;;;;10.82;8.65;;;;;;;;;;5011489;28;20343;-89
2023/07/18 10:27:47;;;;;;;12.65;8.15;;;;;;;;;;5011683;28;20283;-88
2023/07/18 10:30:15;;;;;;;9.07;7.97;;;;;;;;;;5010019;28;20645;-87
2023/07/18 10:32:44;;;;;;;9.25;8.40;;;;;;;;;;5011178;28;20227;-88
2023/07/18 10:35:14;;;;;;;8.93;8.15;;;;;;;;;;5010209;28;20224;-87
2023/07/18 10:37:44;;;;;;;8.32;7.63;;;;;;;;;;5010909;28;20379;-88
2023/07/18 10:40:11;;;;;;;7.03;6.13;;;;;;;;;;5012787;28;20704;-89
2023/07/18 10:42:38;;;;;;;10.05;6.75;;;;;;;;;;5007918;28;20232;-87
2023/07/18 10:45:06;;;;;;;6.55;5.97;;;;;;;;;;5009836;28;20438;-88
2023/07/18 10:47:35;;;;;;;5.63;5.28;;;;;;;;;;5010240;28;20646;-87
2023/07/18 10:50:02;;;;;;;6.95;5.72;;;;;;;;;;5012752;28;20235;-87
2023/07/18 10:52:32;;;;;;;5.30;5.00;;;;;;;;;;5014566;28;20216;-87
2023/07/18 10:54:59;;;;;;;4.80;4.45;;;;;;;;;;4991925;28;20346;-88
2023/07/18 10:57:27;;;;;;;4.78;4.45;;;;;;;;;;4991556;28;20235;-87
2023/07/18 10:59:54;;;;;;;5.43;5.05;;;;;;;;;;4992859;28;20241;-85
2023/07/18 11:02:21;;;;;;;4.82;4.57;;;;;;;;;;4992090;28;20233;-85
2023/07/18 11:04:50;;;;;;;4.25;3.97;;;;;;;;;;4995522;28;20236;-87
2023/07/18 11:07:16;;;;;;;4.50;4.20;;;;;;;;;;4991916;28;20722;-87
2023/07/18 11:09:45;;;;;;;3.53;3.33;;;;;;;;;;5006363;28;20716;-86
2023/07/18 11:12:18;;;;;;;3.95;3.75;;;;;;;;;;5011689;28;20285;-87
2023/07/18 11:14:46;;;;;;;3.90;3.60;;;;;;;;;;5010262;28;20227;-88
2023/07/18 11:17:14;;;;;;;5.53;4.10;;;;;;;;;;5011803;28;20303;-87
2023/07/18 11:19:41;;;;;;;3.10;3.00;;;;;;;;;;5010798;28;20290;-88
2023/07/18 11:22:08;;;;;;;11.95;3.65;;;;;;;;;;5010606;28;20305;-88
2023/07/18 11:24:36;;;;;;;3.95;3.40;;;;;;;;;;4998378;28;20235;-87
2023/07/18 11:27:29;;;;;;;3.83;3.53;;;;;;;;;;5011829;28;20229;-89
2023/07/18 11:30:03;;;;;;;3.40;3.05;;;;;;;;;;4991087;28;20230;-88
2023/07/18 11:32:36;;;;;;;3.22;3.13;;;;;;;;;;4990909;28;20290;-86
2023/07/18 11:35:04;;;;;;;4.70;4.40;;;;;;;;;;4990758;28;20228;-87
2023/07/18 11:37:32;;;;;;;3.42;3.22;;;;;;;;;;5008600;28;20310;-87
2023/07/18 11:39:59;;;;;;;5.25;3.95;;;;;;;;;;5010378;28;20224;-87
2023/07/18 11:42:40;;;;;;;4.25;3.85;;;;;;;;;;5010643;28;20342;-89
2023/07/18 11:45:10;;;;;;;3.80;3.60;;;;;;;;;;5010344;28;20259;-87
2023/07/18 11:47:38;;;;;;;3.60;3.25;;;;;;;;;;5010164;28;20286;-87
2023/07/18 11:50:09;;;;;;;3.42;3.20;;;;;;;;;;5010382;28;20234;-87
2023/07/18 11:52:37;;;;;;;3.33;2.60;;;;;;;;;;5012946;28;20645;-87
2023/07/18 11:55:04;;;;;;;3.10;2.65;;;;;;;;;;5009915;28;20251;-89
2023/07/18 11:57:31;;;;;;;2.80;2.63;;;;;;;;;;5011855;28;20224;-89
2023/07/18 11:59:59;;;;;;;4.57;3.05;;;;;;;;;;5010503;28;20248;-90
2023/07/18 12:02:29;;;;;;;2.85;2.75;;;;;;;;;;5011350;28;20256;-89
2023/07/18 12:04:56;;;;;;;3.00;2.80;;;;;;;;;;5010298;28;20228;-88
2023/07/18 12:07:23;;;;;;;2.75;2.65;;;;;;;;;;5009518;28;20236;-88
2023/07/18 12:09:51;;;;;;;4.30;3.42;;;;;;;;;;5012507;28;20223;-88
2023/07/18 12:12:23;;;;;;;3.00;2.80;;;;;;;;;;5011729;28;20235;-89
2023/07/18 12:14:50;;;;;;;3.40;2.88;;;;;;;;;;5014762;28;20220;-90
2023/07/18 12:17:18;;;;;;;3.17;2.97;;;;;;;;;;5011919;28;20314;-89
2023/07/18 12:19:46;;;;;;;3.08;2.80;;;;;;;;;;5011830;28;20259;-88
2023/07/18 12:22:15;;;;;;;3.53;2.28;;;;;;;;;;5011440;28;20231;-88
2023/07/18 12:24:42;;;;;;;3.10;2.63;;;;;;;;;;5031506;28;20220;-89
2023/07/18 12:27:10;;;;;;;2.65;2.35;;;;;;;;;;5031980;28;20232;-88
2023/07/18 12:29:37;;;;;;;3.65;3.35;;;;;;;;;;5031904;28;20224;-88
2023/07/18 12:32:05;;;;;;;2.97;2.67;;;;;;;;;;5024700;28;20224;-88
2023/07/18 12:34:32;;;;;;;3.83;3.47;;;;;;;;;;5017231;28;20315;-87
2023/07/18 12:37:01;;;;;;;3.40;3.03;;;;;;;;;;5020848;28;20319;-89
2023/07/18 12:39:29;;;;;;;3.38;3.17;;;;;;;;;;5019376;28;20757;-91
2023/07/18 12:41:57;;;;;;;5.35;3.17;;;;;;;;;;5016491;28;20701;-90
2023/07/18 12:44:37;;;;;;;3.80;3.58;;;;;;;;;;5016121;28;20233;-89
2023/07/18 12:47:05;;;;;;;3.92;3.20;;;;;;;;;;5016352;28;20668;-89
2023/07/18 12:49:31;;;;;;;3.05;2.95;;;;;;;;;;5014890;28;20304;-90
2023/07/18 12:52:00;;;;;;;4.97;3.08;;;;;;;;;;5019466;28;20239;-88
2023/07/18 12:54:27;;;;;;;3.20;3.00;;;;;;;;;;5014323;28;20232;-88
2023/07/18 12:56:54;;;;;;;3.70;2.90;;;;;;;;;;5013352;28;20236;-88
2023/07/18 12:59:22;;;;;;;4.20;3.33;;;;;;;;;;5014707;28;20216;-89
2023/07/18 13:01:49;;;;;;;2.80;2.70;;;;;;;;;;5014458;28;20229;-88
2023/07/18 13:04:16;;;;;;;3.10;2.92;;;;;;;;;;5012467;28;20224;-89
2023/07/18 13:06:43;;;;;;;3.35;3.17;;;;;;;;;;5013908;28;20240;-88
2023/07/18 13:09:14;;;;;;;3.22;3.00;;;;;;;;;;5015522;28;20239;-88
2023/07/18 13:11:41;;;;;;;3.45;3.15;;;;;;;;;;5014531;28;20538;-89
2023/07/18 13:14:08;;;;;;;3.40;3.15;;;;;;;;;;5019189;28;20228;-88
2023/07/18 13:16:35;;;;;;;3.47;3.17;;;;;;;;;;5032770;28;20235;-86
2023/07/18 13:19:04;;;;;;;3.38;3.13;;;;;;;;;;5033282;28;20224;-87
2023/07/18 13:21:31;;;;;;;7.07;3.33;;;;;;;;;;5013521;28;20221;-89
2023/07/18 13:23:58;;;;;;;3.13;2.80;;;;;;;;;;5012990;28;20244;-88
2023/07/18 13:26:27;;;;;;;2.78;2.67;;;;;;;;;;4993798;28;20240;-88
2023/07/18 13:28:54;;;;;;;3.22;2.97;;;;;;;;;;4992812;28;20242;-88
2023/07/18 13:31:21;;;;;;;3.45;3.28;;;;;;;;;;4994225;28;20221;-87
2023/07/18 13:33:48;;;;;;;3.55;3.33;;;;;;;;;;4992373;28;20260;-87
2023/07/18 13:36:15;;;;;;;4.72;2.95;;;;;;;;;;4992651;28;20244;-88
2023/07/18 13:38:42;;;;;;;4.10;2.95;;;;;;;;;;4992287;28;20581;-86
2023/07/18 13:41:10;;;;;;;3.58;3.38;;;;;;;;;;4993269;28;20216;-87
2023/07/18 13:43:40;;;;;;;2.92;2.72;;;;;;;;;;4992230;28;20229;-86
2023/07/18 13:46:10;;;;;;;3.03;2.88;;;;;;;;;;4991984;28;20240;-87
2023/07/18 13:48:37;;;;;;;7.13;3.60;;;;;;;;;;4991615;28;20263;-86
2023/07/18 13:51:04;;;;;;;3.78;3.08;;;;;;;;;;4991395;28;20398;-87
2023/07/18 13:53:32;;;;;;;3.60;2.50;;;;;;;;;;5001603;28;20552;-86
2023/07/18 13:55:59;;;;;;;4.15;2.75;;;;;;;;;;5011473;28;20250;-86
2023/07/18 13:58:26;;;;;;;2.70;2.60;;;;;;;;;;5010128;28;20716;-87
2023/07/18 14:00:54;;;;;;;4.93;3.15;;;;;;;;;;5011471;28;20235;-86
2023/07/18 14:03:21;;;;;;;2.65;2.55;;;;;;;;;;5009527;28;20309;-85
2023/07/18 14:05:48;;;;;;;3.28;2.95;;;;;;;;;;5011195;28;20255;-86
2023/07/18 14:08:15;;;;;;;2.83;2.53;;;;;;;;;;5010321;28;20236;-87
2023/07/18 14:10:42;;;;;;;2.35;2.22;;;;;;;;;;5011876;28;20603;-85
2023/07/18 14:13:09;;;;;;;2.70;2.60;;;;;;;;;;5018565;28;20220;-88
2023/07/18 14:15:37;;;;;;;2.65;2.55;;;;;;;;;;5012510;28;20232;-89
2023/07/18 14:18:05;;;;;;;2.90;2.75;;;;;;;;;;5011473;28;20225;-89
2023/07/18 14:20:33;;;;;;;2.53;2.42;;;;;;;;;;5011986;28;20231;-88
2023/07/18 14:23:01;;;;;;;2.58;2.47;;;;;;;;;;5013380;28;20256;-88
2023/07/18 14:25:28;;;;;;;3.58;3.38;;;;;;;;;;5019050;28;20228;-88
2023/07/18 14:27:56;;;;;;;2.58;2.47;;;;;;;;;;5022457;28;20260;-89
2023/07/18 14:30:31;;;;;;;2.22;2.13;;;;;;;;;;5026441;28;20267;-88
2023/07/18 14:32:58;;;;;;;2.42;2.30;;;;;;;;;;5029708;28;20235;-88
2023/07/18 14:35:27;;;;;;;2.38;2.28;;;;;;;;;;5024076;28;20248;-88
2023/07/18 14:37:54;;;;;;;2.78;2.50;;;;;;;;;;5011331;28;20225;-88
2023/07/18 14:40:21;;;;;;;2.92;2.72;;;;;;;;;;5010361;28;20224;-89
2023/07/18 14:42:48;;;;;;;3.10;2.70;;;;;;;;;;5010595;28;20625;-88
2023/07/18 14:45:15;;;;;;;2.90;2.67;;;;;;;;;;5009592;28;20228;-87
2023/07/18 14:47:43;;;;;;;2.58;2.47;;;;;;;;;;5009912;28;20237;-88